createdAt,value
2022-09-28T00:00:08.017Z,99697.13
2022-09-28T00:02:09.636Z,99697.13
2022-09-28T00:04:11.505Z,99700.59
2022-09-28T00:06:16.005Z,99690.97
2022-09-28T00:08:17.467Z,99696.25
2022-09-28T00:10:19.437Z,99688.50
2022-09-28T00:12:21.756Z,99693.72
2022-09-28T00:14:24.381Z,99693.78
2022-09-28T00:16:29.053Z,99691.16
2022-09-28T00:18:31.749Z,99691.22
2022-09-28T00:20:33.229Z,99699.13
2022-09-28T00:22:34.652Z,99693.09
2022-09-28T00:24:36.083Z,99695.75
2022-09-28T00:26:38.380Z,99689.66
2022-09-28T00:28:39.834Z,99687.03
2022-09-28T00:30:41.286Z,99687.88
2022-09-28T00:32:42.854Z,99677.41
2022-09-28T00:34:48.860Z,99672.97
2022-09-28T00:36:50.365Z,99679.00
2022-09-28T00:38:52.299Z,99680.72
2022-09-28T00:40:54.005Z,99678.03
2022-09-28T00:42:55.803Z,99676.28
2022-09-28T00:44:58.665Z,99669.31
2022-09-28T00:47:42.180Z,99673.75
2022-09-28T00:50:01.802Z,99667.66
2022-09-28T00:52:06.768Z,99671.19
2022-09-28T00:54:10.138Z,99670.28
2022-09-28T00:56:17.410Z,99662.41
2022-09-28T00:58:27.446Z,99657.09
2022-09-28T01:00:29.045Z,99658.88
2022-09-28T01:02:31.309Z,99658.91
2022-09-28T01:04:32.847Z,99654.56
2022-09-28T01:06:38.029Z,99650.25
2022-09-28T01:08:39.811Z,99647.69
2022-09-28T01:10:43.482Z,99645.97
2022-09-28T01:12:44.955Z,99643.38
2022-09-28T01:14:47.915Z,99640.75
2022-09-28T01:16:56.561Z,99643.34
2022-09-28T01:19:36.735Z,99639.81
2022-09-28T01:21:52.312Z,99632.78
2022-09-28T01:23:59.532Z,99633.66
2022-09-28T01:26:33.407Z,99635.41
2022-09-28T01:28:34.984Z,99631.94
2022-09-28T01:30:46.095Z,99634.50
2022-09-28T01:32:54.598Z,99630.06
2022-09-28T01:34:58.493Z,99622.19
2022-09-28T01:37:04.601Z,99635.31
2022-09-28T01:39:12.523Z,99624.00
2022-09-28T01:41:17.728Z,99632.00
2022-09-28T01:43:28.505Z,99624.13
2022-09-28T01:45:42.617Z,99627.53
2022-09-28T01:47:46.751Z,99624.00
2022-09-28T01:49:58.423Z,99627.50
2022-09-28T01:52:20.883Z,99623.16
2022-09-28T01:54:46.933Z,99622.34
2022-09-28T01:56:59.602Z,99625.06
2022-09-28T01:59:11.283Z,99621.59
2022-09-28T02:01:24.569Z,99626.88
2022-09-28T02:03:51.645Z,99619.88
2022-09-28T02:06:01.677Z,99616.41
2022-09-28T02:08:13.300Z,99618.13
2022-09-28T02:10:21.849Z,99611.06
2022-09-28T02:12:34.074Z,99615.38
2022-09-28T02:14:40.671Z,99611.84
2022-09-28T02:16:43.448Z,99610.09
2022-09-28T02:18:46.013Z,99603.03
2022-09-28T02:20:56.938Z,99611.72
2022-09-28T02:23:01.398Z,99610.78
2022-09-28T02:25:20.466Z,99608.97
2022-09-28T02:27:30.691Z,99608.06
2022-09-28T02:29:32.152Z,99612.28
2022-09-28T02:31:33.939Z,99605.28
2022-09-28T02:33:42.245Z,99606.13
2022-09-28T02:35:43.987Z,99602.66
2022-09-28T02:37:46.203Z,99604.38
2022-09-28T02:39:47.636Z,99610.47
2022-09-28T02:42:07.868Z,99613.00
2022-09-28T02:44:24.381Z,99604.09
2022-09-28T02:46:50.406Z,99602.28
2022-09-28T02:49:20.862Z,99603.88
2022-09-28T02:51:45.863Z,99602.97
2022-09-28T02:54:05.709Z,99608.03
2022-09-28T02:56:19.673Z,99607.06
2022-09-28T02:58:41.313Z,99610.44
2022-09-28T03:00:57.335Z,99613.84
2022-09-28T03:03:20.550Z,99612.03
2022-09-28T03:06:00.382Z,99612.88
2022-09-28T03:08:03.662Z,99615.38
2022-09-28T03:10:17.648Z,99609.22
2022-09-28T03:12:23.519Z,99606.53
2022-09-28T03:14:25.313Z,99605.63
2022-09-28T03:16:27.622Z,99611.75
2022-09-28T03:18:29.104Z,99618.66
2022-09-28T03:20:32.218Z,99612.44
2022-09-28T03:22:33.645Z,99609.75
2022-09-28T03:24:35.149Z,99615.88
2022-09-28T03:26:40.279Z,99612.31
2022-09-28T03:28:43.464Z,99606.22
2022-09-28T03:30:44.892Z,99608.78
2022-09-28T03:32:46.300Z,99600.84
2022-09-28T03:34:47.745Z,99611.31
2022-09-28T03:36:49.187Z,99613.94
2022-09-28T03:38:55.486Z,99606.97
2022-09-28T03:40:59.097Z,99609.59
2022-09-28T03:43:01.383Z,99604.44
2022-09-28T03:45:03.072Z,99607.06
2022-09-28T03:47:04.535Z,99605.38
2022-09-28T03:49:06.041Z,99607.13
2022-09-28T03:51:09.302Z,99607.19
2022-09-28T03:53:10.795Z,99606.28
2022-09-28T03:55:12.451Z,99607.94
2022-09-28T03:57:13.909Z,99616.66
2022-09-28T03:59:15.642Z,99613.94
2022-09-28T04:01:18.322Z,99607.78
2022-09-28T04:03:19.946Z,99604.22
2022-09-28T04:05:21.429Z,99605.88
2022-09-28T04:07:24.089Z,99598.91
2022-09-28T04:09:27.542Z,99606.69
2022-09-28T04:11:38.524Z,99607.53
2022-09-28T04:13:50.520Z,99609.19
2022-09-28T04:15:54.214Z,99606.56
2022-09-28T04:17:55.653Z,99603.03
2022-09-28T04:19:57.758Z,99604.75
2022-09-28T04:21:59.325Z,99609.94
2022-09-28T04:24:00.946Z,99609.16
2022-09-28T04:26:04.477Z,99610.06
2022-09-28T04:28:24.596Z,99610.19
2022-09-28T04:30:26.487Z,99613.72
2022-09-28T04:32:27.963Z,99614.56
2022-09-28T04:34:34.561Z,99610.19
2022-09-28T04:36:37.299Z,99615.44
2022-09-28T04:38:52.431Z,99611.16
2022-09-28T04:40:54.864Z,99612.84
2022-09-28T04:42:56.806Z,99607.66
2022-09-28T04:44:58.847Z,99612.91
2022-09-28T04:47:04.312Z,99606.84
2022-09-28T04:49:06.806Z,99613.88
2022-09-28T04:51:08.282Z,99610.41
2022-09-28T04:53:09.722Z,99614.72
2022-09-28T04:55:13.558Z,99608.56
2022-09-28T04:57:15.121Z,99608.50
2022-09-28T04:59:16.709Z,99610.22
2022-09-28T05:01:19.914Z,99606.75
2022-09-28T05:03:21.556Z,99611.19
2022-09-28T05:05:23.010Z,99608.56
2022-09-28T05:07:25.510Z,99609.38
2022-09-28T05:09:26.921Z,99608.47
2022-09-28T05:11:28.343Z,99604.19
2022-09-28T05:13:30.905Z,99604.19
2022-09-28T05:15:34.433Z,99608.50
2022-09-28T05:17:35.870Z,99609.38
2022-09-28T05:19:37.429Z,99607.66
2022-09-28T05:21:39.107Z,99603.31
2022-09-28T05:23:45.675Z,99604.19
2022-09-28T05:25:47.142Z,99612.00
2022-09-28T05:27:48.646Z,99616.34
2022-09-28T05:29:50.123Z,99610.97
2022-09-28T05:31:51.591Z,99616.22
2022-09-28T05:33:53.611Z,99605.78
2022-09-28T05:35:59.058Z,99604.91
2022-09-28T05:38:04.588Z,99605.78
2022-09-28T05:40:07.248Z,99602.28
2022-09-28T05:42:08.669Z,99605.78
2022-09-28T05:44:10.269Z,99595.28
2022-09-28T05:46:11.858Z,99603.09
2022-09-28T05:48:13.485Z,99596.97
2022-09-28T05:50:16.289Z,99605.72
2022-09-28T05:52:18.046Z,99603.94
2022-09-28T05:54:19.542Z,99602.19
2022-09-28T05:56:21.097Z,99601.31
2022-09-28T05:58:22.569Z,99606.47
2022-09-28T06:00:24.055Z,99607.22
2022-09-28T06:02:25.904Z,99605.44
2022-09-28T06:04:27.438Z,99601.84
2022-09-28T06:06:28.974Z,99604.47
2022-09-28T06:08:33.624Z,99598.41
2022-09-28T06:10:35.090Z,99604.53
2022-09-28T06:12:36.524Z,99605.38
2022-09-28T06:14:38.921Z,99600.94
2022-09-28T06:16:43.855Z,99610.44
2022-09-28T06:18:45.538Z,99608.75
2022-09-28T06:20:46.965Z,99607.88
2022-09-28T06:22:52.077Z,99612.22
2022-09-28T06:24:53.685Z,99612.28
2022-09-28T06:26:55.115Z,99609.59
2022-09-28T06:28:57.009Z,99618.31
2022-09-28T06:31:00.868Z,99611.31
2022-09-28T06:33:02.803Z,99614.78
2022-09-28T06:35:04.579Z,99616.63
2022-09-28T06:37:06.019Z,99620.16
2022-09-28T06:39:07.630Z,99620.16
2022-09-28T06:41:10.019Z,99622.88
2022-09-28T06:43:14.993Z,99627.31
2022-09-28T06:45:20.021Z,99630.91
2022-09-28T06:47:21.475Z,99630.06
2022-09-28T06:49:22.936Z,99631.03
2022-09-28T06:51:25.052Z,99638.00
2022-09-28T06:53:28.428Z,99638.78
2022-09-28T06:55:30.228Z,99641.38
2022-09-28T06:57:31.663Z,99641.38
2022-09-28T06:59:33.125Z,99639.53
2022-09-28T07:01:34.631Z,99646.44
2022-09-28T07:03:36.134Z,99650.59
2022-09-28T07:05:41.872Z,99645.13
2022-09-28T07:07:44.693Z,99649.41
2022-09-28T07:09:50.228Z,99650.16
2022-09-28T07:11:53.890Z,99654.38
2022-09-28T07:13:55.350Z,99654.28
2022-09-28T07:15:59.445Z,99662.09
2022-09-28T07:18:03.987Z,99659.34
2022-09-28T07:20:17.387Z,99661.00
2022-09-28T07:22:29.401Z,99666.16
2022-09-28T07:24:36.039Z,99670.38
2022-09-28T07:26:37.486Z,99670.31
2022-09-28T07:28:40.439Z,99658.84
2022-09-28T07:30:44.182Z,99673.66
2022-09-28T07:32:45.834Z,99680.59
2022-09-28T07:34:48.657Z,99672.66
2022-09-28T07:36:50.297Z,99671.66
2022-09-28T07:38:51.712Z,99680.34
2022-09-28T07:41:11.448Z,99672.31
2022-09-28T07:43:20.443Z,99677.69
2022-09-28T07:45:25.215Z,99685.00
2022-09-28T07:47:30.819Z,99681.69
2022-09-28T07:49:35.328Z,99681.88
2022-09-28T07:51:36.746Z,99686.03
2022-09-28T07:53:38.460Z,99687.44
2022-09-28T07:55:39.879Z,99677.69
2022-09-28T07:57:41.788Z,99680.28
2022-09-28T07:59:43.728Z,99692.34
2022-09-28T08:01:45.259Z,99683.47
2022-09-28T08:03:48.086Z,99682.38
2022-09-28T08:05:49.775Z,99694.44
2022-09-28T08:07:52.933Z,99695.22
2022-09-28T08:09:54.506Z,99691.81
2022-09-28T08:11:56.086Z,99693.53
2022-09-28T08:13:58.080Z,99699.31
2022-09-28T08:16:03.864Z,99694.53
2022-09-28T08:18:05.906Z,99696.03
2022-09-28T08:20:26.808Z,99697.56
2022-09-28T08:22:32.122Z,99703.59
2022-09-28T08:24:33.546Z,99701.66
2022-09-28T08:26:35.210Z,99702.31
2022-09-28T08:28:36.934Z,99705.88
2022-09-28T08:30:38.425Z,99710.34
2022-09-28T08:32:41.546Z,99711.38
2022-09-28T08:34:43.066Z,99714.75
2022-09-28T08:36:44.474Z,99710.28
2022-09-28T08:38:46.082Z,99723.31
2022-09-28T08:40:59.485Z,99720.75
2022-09-28T08:43:07.049Z,99724.97
2022-09-28T08:45:14.760Z,99727.53
2022-09-28T08:47:46.742Z,99725.72
2022-09-28T08:49:50.298Z,99730.81
2022-09-28T08:52:03.260Z,99731.69
2022-09-28T08:54:11.919Z,99730.81
2022-09-28T08:56:37.590Z,99736.09
2022-09-28T08:58:44.431Z,99729.91
2022-09-28T09:00:49.292Z,99737.75
2022-09-28T09:02:50.912Z,99737.00
2022-09-28T09:04:53.480Z,99740.84
2022-09-28T09:07:22.437Z,99750.63
2022-09-28T09:09:56.311Z,99744.25
2022-09-28T09:12:18.811Z,99750.06
2022-09-28T09:14:32.241Z,99754.22
2022-09-28T09:16:42.550Z,99748.22
2022-09-28T09:19:20.343Z,99759.59
2022-09-28T09:21:21.835Z,99757.81
2022-09-28T09:23:42.128Z,99758.75
2022-09-28T09:25:54.975Z,99759.53
2022-09-28T09:28:21.433Z,99761.38
2022-09-28T09:30:25.169Z,99758.81
2022-09-28T09:32:53.421Z,99764.19
2022-09-28T09:35:05.594Z,99762.31
2022-09-28T09:37:20.241Z,99768.00
2022-09-28T09:39:33.752Z,99765.09
2022-09-28T09:41:38.212Z,99766.69
2022-09-28T09:43:59.798Z,99759.47
2022-09-28T09:46:16.255Z,99769.63
2022-09-28T09:48:26.193Z,99774.72
2022-09-28T09:50:48.230Z,99769.41
2022-09-28T09:52:57.764Z,99769.28
2022-09-28T09:55:04.189Z,99769.81
2022-09-28T09:57:19.621Z,99773.91
2022-09-28T09:59:26.505Z,99774.69
2022-09-28T10:01:35.060Z,99779.19
2022-09-28T10:03:41.278Z,99780.94
2022-09-28T10:05:47.983Z,99781.81
2022-09-28T10:07:58.792Z,99782.72
2022-09-28T10:10:02.185Z,99786.22
2022-09-28T10:12:04.877Z,99785.19
2022-09-28T10:14:08.182Z,99783.13
2022-09-28T10:16:09.671Z,99792.41
2022-09-28T10:18:14.033Z,99789.38
2022-09-28T10:20:16.603Z,99781.31
2022-09-28T10:22:23.021Z,99779.97
2022-09-28T10:24:33.716Z,99779.69
2022-09-28T10:26:42.596Z,99780.56
2022-09-28T10:29:01.449Z,99780.63
2022-09-28T10:31:35.681Z,99777.75
2022-09-28T10:33:38.736Z,99781.53
2022-09-28T10:35:43.270Z,99779.81
2022-09-28T10:37:47.682Z,99785.38
2022-09-28T10:39:55.586Z,99785.53
2022-09-28T10:42:00.425Z,99785.53
2022-09-28T10:44:06.958Z,99789.16
2022-09-28T10:46:12.234Z,99788.38
2022-09-28T10:48:19.251Z,99784.97
2022-09-28T10:50:24.564Z,99789.50
2022-09-28T10:52:34.013Z,99792.41
2022-09-28T10:54:37.052Z,99790.19
2022-09-28T10:56:40.213Z,99786.69
2022-09-28T10:58:42.823Z,99790.44
2022-09-28T11:00:44.863Z,99795.63
2022-09-28T11:02:46.591Z,99793.47
2022-09-28T11:04:54.623Z,99792.34
2022-09-28T11:09:31.175Z,99789.63
2022-09-28T11:11:43.917Z,99793.97
2022-09-28T11:13:55.752Z,99787.31
2022-09-28T11:15:57.792Z,99786.50
2022-09-28T11:18:25.975Z,99787.97
2022-09-28T11:20:28.611Z,99796.75
2022-09-28T11:22:33.150Z,99791.75
2022-09-28T11:24:34.650Z,99783.47
2022-09-28T11:26:42.853Z,99785.22
2022-09-28T11:28:51.546Z,99784.47
2022-09-28T11:30:53.677Z,99786.16
2022-09-28T11:33:02.384Z,99786.75
2022-09-28T11:35:04.226Z,99789.38
2022-09-28T11:37:31.270Z,99788.53
2022-09-28T11:39:47.570Z,99794.09
2022-09-28T11:41:58.707Z,99792.53
2022-09-28T11:44:03.170Z,99785.19
2022-09-28T11:46:13.923Z,99784.41
2022-09-28T11:48:22.172Z,99796.97
2022-09-28T11:50:43.672Z,99789.94
2022-09-28T11:52:50.864Z,99790.09
2022-09-28T11:54:57.220Z,99793.34
2022-09-28T11:57:03.620Z,99788.53
2022-09-28T11:59:05.092Z,99791.75
2022-09-28T12:01:25.329Z,99798.56
2022-09-28T12:03:37.658Z,99793.78
2022-09-28T12:05:44.813Z,99796.41
2022-09-28T12:07:50.592Z,99797.72
2022-09-28T12:09:59.392Z,99799.06
2022-09-28T12:12:04.205Z,99795.69
2022-09-28T12:14:13.931Z,99801.66
2022-09-28T12:19:15.370Z,99812.47
2022-09-28T12:21:32.195Z,99809.22
2022-09-28T12:23:36.003Z,99805.19
2022-09-28T12:25:46.227Z,99810.22
2022-09-28T12:27:56.277Z,99803.28
2022-09-28T12:30:15.315Z,99800.88
2022-09-28T12:32:29.435Z,99807.13
2022-09-28T12:34:31.348Z,99809.69
2022-09-28T12:36:41.795Z,99807.19
2022-09-28T12:38:54.128Z,99806.50
2022-09-28T12:41:09.734Z,99809.53
2022-09-28T12:43:36.413Z,99812.56
2022-09-28T12:46:25.325Z,99811.72
2022-09-28T12:48:42.034Z,99814.75
2022-09-28T12:51:02.605Z,99809.19
2022-09-28T12:53:29.609Z,99804.84
2022-09-28T12:55:46.250Z,99806.19
2022-09-28T12:57:58.877Z,99801.91
2022-09-28T13:00:15.750Z,99807.38
2022-09-28T13:02:48.172Z,99818.44
2022-09-28T13:05:14.303Z,99805.34
2022-09-28T13:07:15.717Z,99813.47
2022-09-28T13:09:20.261Z,99815.31
2022-09-28T13:11:41.549Z,99816.25
2022-09-28T13:14:07.690Z,99818.66
2022-09-28T13:16:18.833Z,99814.22
2022-09-28T13:18:30.879Z,99814.84
2022-09-28T13:20:32.338Z,99812.66
2022-09-28T13:23:15.389Z,99816.06
2022-09-28T13:25:20.530Z,99813.34
2022-09-28T13:27:42.329Z,99819.50
2022-09-28T13:29:44.372Z,99821.22
2022-09-28T13:31:50.521Z,99816.63
2022-09-28T13:33:52.940Z,99816.28
2022-09-28T13:35:54.448Z,99816.78
2022-09-28T13:38:17.483Z,99818.84
2022-09-28T13:40:19.408Z,99816.03
2022-09-28T13:42:42.218Z,99818.00
2022-09-28T13:44:54.333Z,99822.50
2022-09-28T13:47:25.588Z,99828.66
2022-09-28T13:49:43.234Z,99830.13
2022-09-28T13:51:59.875Z,99824.91
2022-09-28T13:54:25.780Z,99826.72
2022-09-28T13:56:38.067Z,99828.34
2022-09-28T13:59:14.480Z,99830.38
2022-09-28T14:01:21.017Z,99824.13
2022-09-28T14:03:27.150Z,99820.38
2022-09-28T14:05:52.039Z,99823.81
2022-09-28T14:08:08.733Z,99818.94
2022-09-28T14:10:25.890Z,99824.47
2022-09-28T14:12:29.177Z,99821.81
2022-09-28T14:14:49.080Z,99819.34
2022-09-28T14:16:58.816Z,99819.50
2022-09-28T14:19:00.213Z,99817.69
2022-09-28T14:21:21.283Z,99821.03
2022-09-28T14:23:25.404Z,99822.16
2022-09-28T14:25:30.898Z,99819.94
2022-09-28T14:27:44.332Z,99825.56
2022-09-28T14:29:47.309Z,99825.50
2022-09-28T14:31:48.795Z,99824.41
2022-09-28T14:34:03.445Z,99828.66
2022-09-28T14:36:42.868Z,99827.38
2022-09-28T14:39:08.469Z,99830.16
2022-09-28T14:41:28.536Z,99839.59
2022-09-28T14:43:36.083Z,99844.63
2022-09-28T14:45:38.829Z,99829.31
2022-09-28T14:47:44.395Z,99831.81
2022-09-28T14:49:47.649Z,99832.91
2022-09-28T14:51:55.884Z,99830.63
2022-09-28T14:54:17.935Z,99836.25
2022-09-28T14:56:20.450Z,99843.94
2022-09-28T14:58:26.657Z,99844.88
2022-09-28T15:00:30.415Z,99850.16
2022-09-28T15:02:36.040Z,99849.22
2022-09-28T15:04:43.282Z,99846.66
2022-09-28T15:06:49.645Z,99851.97
2022-09-28T15:08:51.607Z,99841.38
2022-09-28T15:10:56.573Z,99846.50
2022-09-28T15:13:01.370Z,99842.84
2022-09-28T15:15:08.406Z,99848.91
2022-09-28T15:17:11.354Z,99840.97
2022-09-28T15:19:23.595Z,99848.88
2022-09-28T15:21:33.644Z,99840.00
2022-09-28T15:23:39.098Z,99837.09
2022-09-28T15:25:40.528Z,99847.44
2022-09-28T15:27:42.074Z,99842.16
2022-09-28T15:30:14.397Z,99846.44
2022-09-28T15:32:26.402Z,99846.84
2022-09-28T15:34:51.554Z,99859.38
2022-09-28T15:36:56.380Z,99859.47
2022-09-28T15:39:04.631Z,99860.41
2022-09-28T15:41:07.729Z,99859.66
2022-09-28T15:43:32.872Z,99862.47
2022-09-28T15:45:38.090Z,99862.56
2022-09-28T15:47:41.318Z,99864.66
2022-09-28T15:49:45.717Z,99860.31
2022-09-28T15:51:52.742Z,99862.00
2022-09-28T15:54:00.257Z,99861.31
2022-09-28T15:56:09.815Z,99865.06
2022-09-28T15:58:22.756Z,99855.63
2022-09-28T16:00:28.224Z,99863.81
2022-09-28T16:02:29.759Z,99864.81
2022-09-28T16:04:44.579Z,99864.81
2022-09-28T16:07:05.233Z,99858.75
2022-09-28T16:09:36.114Z,99870.28
2022-09-28T16:11:45.114Z,99867.78
2022-09-28T16:13:56.665Z,99875.91
2022-09-28T16:15:59.838Z,99872.03
2022-09-28T16:18:06.789Z,99872.41
2022-09-28T16:20:32.050Z,99874.50
2022-09-28T16:22:33.636Z,99878.28
2022-09-28T16:24:38.865Z,99878.63
2022-09-28T16:26:40.464Z,99878.03
2022-09-28T16:28:45.909Z,99878.97
2022-09-28T16:31:06.316Z,99882.56
2022-09-28T16:33:29.259Z,99878.34
2022-09-28T16:35:42.861Z,99881.06
2022-09-28T16:37:45.433Z,99882.84
2022-09-28T16:39:46.868Z,99881.13
2022-09-28T16:41:55.624Z,99884.72
2022-09-28T16:44:02.097Z,99882.66
2022-09-28T16:46:09.421Z,99887.00
2022-09-28T16:48:19.368Z,99895.94
2022-09-28T16:50:22.421Z,99894.28
2022-09-28T16:52:42.426Z,99896.22
2022-09-28T16:55:10.258Z,99894.66
2022-09-28T16:57:19.239Z,99894.88
2022-09-28T16:59:22.244Z,99894.94
2022-09-28T17:01:24.618Z,99891.53
2022-09-28T17:03:27.415Z,99897.81
2022-09-28T17:05:29.454Z,99897.97
2022-09-28T17:07:31.785Z,99904.25
2022-09-28T17:09:33.833Z,99900.09
2022-09-28T17:11:35.301Z,99897.53
2022-09-28T17:13:37.432Z,99901.25
2022-09-28T17:15:39.954Z,99905.03
2022-09-28T17:17:41.866Z,99915.84
2022-09-28T17:19:43.432Z,99907.34
2022-09-28T17:21:45.108Z,99915.56
2022-09-28T17:23:50.042Z,99914.06
2022-09-28T17:25:53.679Z,99916.97
2022-09-28T17:27:57.458Z,99919.63
2022-09-28T17:29:58.916Z,99912.75
2022-09-28T17:32:00.451Z,99921.66
2022-09-28T17:34:01.932Z,99918.22
2022-09-28T17:36:04.916Z,99923.63
2022-09-28T17:38:06.486Z,99922.84
2022-09-28T17:40:25.696Z,99927.41
2022-09-28T17:42:27.173Z,99923.31
2022-09-28T17:44:28.606Z,99926.09
2022-09-28T17:46:33.182Z,99920.03
2022-09-28T17:48:35.720Z,99924.59
2022-09-28T17:50:37.325Z,99923.78
2022-09-28T17:52:38.776Z,99922.13
2022-09-28T17:54:40.190Z,99920.44
2022-09-28T17:56:42.581Z,99926.69
2022-09-28T17:58:44.029Z,99918.94
2022-09-28T18:00:47.032Z,99923.47
2022-09-28T18:02:48.699Z,99927.97
2022-09-28T18:04:52.422Z,99927.16
2022-09-28T18:06:54.305Z,99926.50
2022-09-28T18:08:55.813Z,99921.34
2022-09-28T18:10:57.359Z,99917.13
2022-09-28T18:12:58.817Z,99926.03
2022-09-28T18:15:00.389Z,99932.28
2022-09-28T18:17:01.932Z,99926.28
2022-09-28T18:19:03.393Z,99936.09
2022-09-28T18:21:05.085Z,99938.84
2022-09-28T18:23:06.494Z,99939.03
2022-09-28T18:25:08.158Z,99943.56
2022-09-28T18:27:09.591Z,99949.88
2022-09-28T18:29:11.031Z,99949.16
2022-09-28T18:31:14.783Z,99951.03
2022-09-28T18:33:16.643Z,99955.56
2022-09-28T18:35:22.593Z,99953.84
2022-09-28T18:37:24.496Z,99956.66
2022-09-28T18:39:26.591Z,99959.34
2022-09-28T18:41:28.441Z,99962.03
2022-09-28T18:43:33.196Z,99963.00
2022-09-28T18:45:37.209Z,99966.59
2022-09-28T18:47:39.903Z,99962.31
2022-09-28T18:49:46.462Z,99965.94
2022-09-28T18:51:48.384Z,99966.91
2022-09-28T18:53:50.177Z,99963.47
2022-09-28T18:55:51.601Z,99971.47
2022-09-28T18:57:53.612Z,99974.16
2022-09-28T18:59:55.013Z,99970.78
2022-09-28T19:01:56.493Z,99970.00
2022-09-28T19:04:03.196Z,99965.69
2022-09-28T19:06:09.609Z,99974.56
2022-09-28T19:08:11.156Z,99972.03
2022-09-28T19:10:12.614Z,99978.22
2022-09-28T19:12:14.639Z,99974.78
2022-09-28T19:14:16.554Z,99981.03
2022-09-28T19:16:26.328Z,99982.00
2022-09-28T19:18:30.959Z,99983.78
2022-09-28T19:20:33.562Z,99986.47
2022-09-28T19:22:35.003Z,99986.53
2022-09-28T19:24:36.471Z,99978.66
2022-09-28T19:26:37.963Z,99982.25
2022-09-28T19:28:42.206Z,99988.44
2022-09-28T19:30:43.923Z,99986.75
2022-09-28T19:32:45.404Z,99988.59
2022-09-28T19:34:46.817Z,99984.25
2022-09-28T19:36:48.228Z,99986.88
2022-09-28T19:38:51.582Z,99984.25
2022-09-28T19:40:53.065Z,99986.88
2022-09-28T19:42:54.697Z,99987.78
2022-09-28T19:44:56.401Z,99997.50
2022-09-28T19:46:59.963Z,100001.97
2022-09-28T19:49:02.246Z,99997.66
2022-09-28T19:51:06.184Z,100005.63
2022-09-28T19:53:07.969Z,100003.16
2022-09-28T19:55:09.608Z,99998.84
2022-09-28T19:57:13.148Z,100004.06
2022-09-28T19:59:15.194Z,99999.72
2022-09-28T20:01:16.827Z,100005.03
2022-09-28T20:03:21.171Z,100006.84
2022-09-28T20:05:22.641Z,100000.78
2022-09-28T20:07:24.153Z,100006.97
2022-09-28T20:09:25.637Z,100006.97
2022-09-28T20:11:27.161Z,100008.78
2022-09-28T20:13:36.557Z,100011.47
2022-09-28T20:15:38.038Z,100013.28
2022-09-28T20:17:39.671Z,100014.19
2022-09-28T20:19:41.130Z,100015.09
2022-09-28T20:21:42.619Z,100020.41
2022-09-28T20:23:44.709Z,100023.06
2022-09-28T20:25:46.161Z,100019.69
2022-09-28T20:27:47.583Z,100019.84
2022-09-28T20:29:48.989Z,100014.69
2022-09-28T20:31:51.263Z,100025.19
2022-09-28T20:33:53.083Z,100026.16
2022-09-28T20:35:54.823Z,100018.31
2022-09-28T20:37:57.678Z,100029.81
2022-09-28T20:40:01.462Z,100032.53
2022-09-28T20:42:02.911Z,100033.56
2022-09-28T20:44:06.499Z,100030.09
2022-09-28T20:46:10.388Z,100028.44
2022-09-28T20:48:11.920Z,100026.66
2022-09-28T20:50:13.406Z,100034.50
2022-09-28T20:52:14.897Z,100029.25
2022-09-28T20:54:16.416Z,100028.38
2022-09-28T20:56:19.620Z,100032.78
2022-09-28T20:58:21.063Z,100024.06
2022-09-28T21:00:22.619Z,100036.38
2022-09-28T21:02:24.082Z,100036.44
2022-09-28T21:04:25.806Z,100040.88
2022-09-28T21:06:30.000Z,100034.81
2022-09-28T21:08:31.578Z,100033.13
2022-09-28T21:10:33.020Z,100032.34
2022-09-28T21:12:34.470Z,100041.19
2022-09-28T21:14:36.012Z,100036.84
2022-09-28T21:16:38.221Z,100037.84
2022-09-28T21:18:40.474Z,100040.53
2022-09-28T21:20:50.634Z,100036.22
2022-09-28T21:22:52.082Z,100034.59
2022-09-28T21:24:53.484Z,100036.41
2022-09-28T21:26:55.549Z,100042.59
2022-09-28T21:29:04.346Z,100036.47
2022-09-28T21:31:07.283Z,100040.28
2022-09-28T21:33:09.116Z,100037.56
2022-09-28T21:35:10.568Z,100048.06
2022-09-28T21:37:11.985Z,100044.63
2022-09-28T21:39:14.496Z,100044.72
2022-09-28T21:41:15.973Z,100050.88
2022-09-28T21:43:17.502Z,100048.34
2022-09-28T21:45:19.429Z,100054.56
2022-09-28T21:47:20.853Z,100052.97
2022-09-28T21:49:22.499Z,100053.97
2022-09-28T21:51:24.516Z,100063.72
2022-09-28T21:53:28.926Z,100058.41
2022-09-28T21:55:30.405Z,100062.84
2022-09-28T21:57:31.822Z,100055.88
2022-09-28T21:59:33.258Z,100062.91
2022-09-28T22:01:34.722Z,100059.50
2022-09-28T22:03:36.680Z,100065.72
2022-09-28T22:05:38.157Z,100062.25
2022-09-28T22:07:41.257Z,100061.44
2022-09-28T22:09:42.670Z,100063.31
2022-09-28T22:11:44.142Z,100066.88
2022-09-28T22:13:51.401Z,100065.97
2022-09-28T22:15:54.127Z,100064.25
2022-09-28T22:17:55.588Z,100059.91
2022-09-28T22:19:57.017Z,100065.16
2022-09-28T22:21:58.447Z,100064.25
2022-09-28T22:24:02.051Z,100065.91
2022-09-28T22:26:08.049Z,100070.28
2022-09-28T22:28:09.519Z,100070.28
2022-09-28T22:30:11.247Z,100072.84
2022-09-28T22:32:12.661Z,100067.59
2022-09-28T22:34:14.286Z,100071.13
2022-09-28T22:36:16.667Z,100080.72
2022-09-28T22:38:19.551Z,100077.19
2022-09-28T22:40:20.996Z,100073.72
2022-09-28T22:42:22.734Z,100078.06
2022-09-28T22:44:24.226Z,100078.06
2022-09-28T22:46:28.245Z,100080.66
2022-09-28T22:48:29.962Z,100084.13
2022-09-28T22:50:31.552Z,100079.69
2022-09-28T22:52:32.964Z,100083.19
2022-09-28T22:54:34.636Z,100086.63
2022-09-28T22:56:36.043Z,100081.38
2022-09-28T22:58:38.479Z,100080.53
2022-09-28T23:00:40.039Z,100084.06
2022-09-28T23:02:41.506Z,100082.38
2022-09-28T23:04:42.945Z,100086.72
2022-09-28T23:06:44.370Z,100090.22
2022-09-28T23:08:47.318Z,100091.94
2022-09-28T23:10:49.050Z,100087.50
2022-09-28T23:12:52.804Z,100086.59
2022-09-28T23:14:54.238Z,100089.25
2022-09-28T23:16:55.670Z,100086.72
2022-09-28T23:18:57.637Z,100088.47
2022-09-28T23:21:01.603Z,100079.78
2022-09-28T23:23:03.061Z,100090.34
2022-09-28T23:25:04.840Z,100083.41
2022-09-28T23:27:07.138Z,100092.16
2022-09-28T23:29:10.800Z,100087.75
2022-09-28T23:31:23.900Z,100087.84
2022-09-28T23:33:25.340Z,100094.91
2022-09-28T23:35:26.760Z,100093.22
2022-09-28T23:37:28.201Z,100087.97
2022-09-28T23:39:29.614Z,100096.75
2022-09-28T23:41:31.105Z,100095.03
2022-09-28T23:43:32.872Z,100092.50
2022-09-28T23:45:34.366Z,100092.53
2022-09-28T23:47:37.311Z,100093.44
2022-09-28T23:49:38.756Z,100084.75
2022-09-28T23:51:40.186Z,100088.28
2022-09-28T23:53:41.698Z,100092.69
2022-09-28T23:55:43.265Z,100089.25
2022-09-28T23:57:45.231Z,100097.13
2022-09-28T23:59:46.632Z,100099.94
